Time;durP1;ratioP1;P1;durP2;ratioP2;P2;SDS_P1;SDS_P2;PMS_P1;PMS_P2;Temp;Humidity;BMP_temperature;BMP_pressure;BME280_temperature;BME280_humidity;BME280_pressure;Samples;Min_cycle;Max_cycle;Signal;HPM_P1;HPM_P2
2023/12/31 00:02:00;;;;;;;1.97;1.00;;;9.50;99.90;;;;;;5053652;28;20225;-78
2023/12/31 00:04:27;;;;;;;1.00;0.90;;;9.50;99.90;;;;;;5035677;28;20205;-78
2023/12/31 00:06:56;;;;;;;1.33;1.10;;;9.60;99.90;;;;;;5035635;28;20202;-78
2023/12/31 00:09:23;;;;;;;2.40;1.20;;;9.50;99.90;;;;;;5035423;28;20195;-78
2023/12/31 00:11:50;;;;;;;1.83;0.90;;;9.60;99.90;;;;;;5036084;28;20218;-78
2023/12/31 00:14:18;;;;;;;2.10;1.00;;;9.50;99.90;;;;;;5033918;28;20198;-78
2023/12/31 00:16:45;;;;;;;1.30;1.10;;;9.60;99.90;;;;;;5035679;28;20198;-78
2023/12/31 00:19:13;;;;;;;1.40;1.10;;;9.70;99.90;;;;;;5053420;28;20557;-78
2023/12/31 00:21:42;;;;;;;3.30;1.20;;;9.70;99.90;;;;;;5035388;28;20202;-78
2023/12/31 00:24:11;;;;;;;2.40;1.13;;;9.70;99.90;;;;;;5035239;28;20563;-78
2023/12/31 00:26:38;;;;;;;0.90;0.87;;;9.70;99.90;;;;;;5035924;28;20194;-78
2023/12/31 00:29:10;;;;;;;2.33;1.23;;;9.70;99.90;;;;;;5035347;28;20202;-78
2023/12/31 00:31:37;;;;;;;2.37;1.30;;;9.70;99.90;;;;;;5035781;28;20202;-78
2023/12/31 00:34:35;;;;;;;1.80;1.50;;;9.70;99.90;;;;;;5035548;28;20197;-78
2023/12/31 00:37:05;;;;;;;2.57;1.30;;;9.70;99.90;;;;;;5035266;28;20555;-78
2023/12/31 00:39:33;;;;;;;3.30;1.40;;;9.70;99.90;;;;;;5052984;28;20202;-77
2023/12/31 00:42:01;;;;;;;1.93;1.50;;;9.70;99.90;;;;;;5035887;28;20225;-77
2023/12/31 00:44:28;;;;;;;2.17;1.27;;;9.70;99.90;;;;;;5035211;28;20214;-77
2023/12/31 00:46:56;;;;;;;2.63;1.80;;;9.70;99.90;;;;;;5035268;28;20198;-77
2023/12/31 00:49:24;;;;;;;1.83;1.70;;;9.70;99.90;;;;;;5052848;28;20213;-77
2023/12/31 00:51:51;;;;;;;3.93;1.80;;;9.70;99.90;;;;;;5042152;28;20218;-77
2023/12/31 00:54:19;;;;;;;1.93;1.50;;;9.70;99.90;;;;;;5045710;28;20193;-77
2023/12/31 00:56:48;;;;;;;3.33;1.90;;;9.70;99.90;;;;;;5034920;28;20202;-77
2023/12/31 00:59:16;;;;;;;4.73;1.70;;;9.70;99.90;;;;;;5035602;28;20198;-77
2023/12/31 01:01:43;;;;;;;3.20;2.07;;;9.70;99.90;;;;;;5035001;28;20198;-77
2023/12/31 01:04:10;;;;;;;2.77;1.73;;;9.70;99.90;;;;;;5034729;28;20239;-77
2023/12/31 01:06:38;;;;;;;2.23;1.87;;;9.60;99.90;;;;;;5034640;28;20206;-77
2023/12/31 01:09:06;;;;;;;3.70;2.20;;;9.70;99.90;;;;;;5036298;28;20201;-77
2023/12/31 01:11:34;;;;;;;2.47;2.07;;;9.80;99.90;;;;;;5034551;28;20194;-77
2023/12/31 01:14:03;;;;;;;3.67;2.67;;;9.80;99.90;;;;;;5034313;28;20194;-77
2023/12/31 01:16:31;;;;;;;2.50;2.30;;;9.80;99.90;;;;;;5035090;28;20198;-77
2023/12/31 01:18:58;;;;;;;2.40;2.20;;;9.80;99.90;;;;;;5035046;28;20197;-77
2023/12/31 01:21:25;;;;;;;2.80;2.43;;;9.90;99.90;;;;;;5035175;28;20194;-77
2023/12/31 01:23:53;;;;;;;3.30;2.10;;;9.80;99.90;;;;;;5034646;28;20214;-77
2023/12/31 01:26:20;;;;;;;3.33;2.13;;;9.70;99.90;;;;;;5052579;28;20205;-77
2023/12/31 01:28:48;;;;;;;2.40;2.20;;;9.70;99.90;;;;;;5047831;28;20194;-77
2023/12/31 01:31:20;;;;;;;3.80;2.20;;;9.80;99.90;;;;;;5034078;28;20199;-77
2023/12/31 01:33:48;;;;;;;3.90;2.10;;;9.80;99.90;;;;;;5033735;28;20225;-77
2023/12/31 01:36:16;;;;;;;2.33;2.03;;;9.80;99.90;;;;;;5035206;28;20207;-77
2023/12/31 01:38:44;;;;;;;2.37;2.00;;;9.80;99.90;;;;;;5034940;28;20194;-77
2023/12/31 01:41:12;;;;;;;3.13;2.20;;;9.70;99.90;;;;;;5050059;28;20194;-77
2023/12/31 01:43:39;;;;;;;3.47;2.20;;;9.80;99.90;;;;;;5051561;28;20209;-77
2023/12/31 01:46:09;;;;;;;2.37;2.13;;;9.70;99.90;;;;;;5034089;28;20194;-77
2023/12/31 01:48:38;;;;;;;2.90;2.40;;;9.70;99.90;;;;;;5033824;28;20202;-77
2023/12/31 01:51:06;;;;;;;3.03;2.00;;;9.80;99.90;;;;;;5051294;28;20198;-77
2023/12/31 01:53:33;;;;;;;2.27;2.07;;;9.70;99.90;;;;;;5057992;22;20218;-76
2023/12/31 01:56:02;;;;;;;2.60;2.27;;;9.70;99.90;;;;;;5052009;28;20214;-77
2023/12/31 01:58:29;;;;;;;3.07;1.90;;;9.70;99.90;;;;;;5050831;28;20206;-77
2023/12/31 02:00:57;;;;;;;4.23;2.00;;;9.80;99.90;;;;;;5047043;28;20656;-77
2023/12/31 02:03:29;;;;;;;2.97;2.10;;;9.80;99.90;;;;;;5034760;28;20708;-77
2023/12/31 02:05:58;;;;;;;2.30;2.07;;;9.80;99.90;;;;;;5025358;28;20192;-77
2023/12/31 02:08:26;;;;;;;2.07;1.90;;;10.00;99.90;;;;;;5021758;28;20202;-77
2023/12/31 02:10:54;;;;;;;3.00;1.90;;;9.90;99.90;;;;;;5032199;28;20210;-77
2023/12/31 02:13:22;;;;;;;3.10;1.70;;;9.90;99.90;;;;;;5030528;28;20222;-77
2023/12/31 02:15:53;;;;;;;3.23;1.90;;;9.90;99.90;;;;;;5030540;28;20194;-77
2023/12/31 02:18:20;;;;;;;7.70;2.00;;;10.00;99.90;;;;;;5030811;28;20203;-77
2023/12/31 02:20:48;;;;;;;1.30;1.20;;;10.00;99.90;;;;;;5031227;28;20191;-77
2023/12/31 02:23:17;;;;;;;2.27;1.70;;;10.00;99.90;;;;;;5030259;28;20222;-76
2023/12/31 02:25:48;;;;;;;2.27;1.40;;;9.90;99.90;;;;;;5030322;28;20203;-77
2023/12/31 02:28:17;;;;;;;3.30;2.07;;;10.00;99.90;;;;;;5030417;28;20195;-77
2023/12/31 02:30:44;;;;;;;3.73;2.17;;;10.00;99.90;;;;;;5030394;28;20653;-77
2023/12/31 02:33:12;;;;;;;3.33;1.73;;;10.00;99.90;;;;;;5030922;28;20244;-77
2023/12/31 02:35:40;;;;;;;1.97;1.70;;;10.00;99.90;;;;;;5030249;28;20203;-77
2023/12/31 02:38:08;;;;;;;2.40;1.67;;;10.00;99.90;;;;;;5033351;28;20202;-77
2023/12/31 02:40:35;;;;;;;2.20;1.47;;;10.00;99.90;;;;;;5033797;28;20210;-77
2023/12/31 02:43:03;;;;;;;1.73;1.57;;;10.00;99.90;;;;;;5035343;28;20207;-77
2023/12/31 02:45:32;;;;;;;2.03;1.70;;;9.90;99.90;;;;;;5033669;28;20199;-77
2023/12/31 02:47:59;;;;;;;2.00;1.40;;;9.90;99.90;;;;;;5034305;28;20203;-77
2023/12/31 02:50:27;;;;;;;2.07;1.50;;;9.90;99.90;;;;;;5034101;28;20191;-77
2023/12/31 02:52:54;;;;;;;2.80;2.33;;;9.80;99.90;;;;;;5035418;28;20226;-77
2023/12/31 02:55:22;;;;;;;1.80;1.60;;;9.90;99.90;;;;;;5033615;28;20202;-77
2023/12/31 02:57:50;;;;;;;1.80;1.43;;;9.90;99.90;;;;;;5035300;28;20202;-77
2023/12/31 03:00:18;;;;;;;2.93;1.63;;;9.80;99.90;;;;;;5033437;28;20203;-76
2023/12/31 03:02:49;;;;;;;1.80;1.60;;;9.90;99.90;;;;;;5033401;28;20230;-77
2023/12/31 03:05:16;;;;;;;1.50;1.33;;;9.90;99.90;;;;;;5033602;28;20229;-77
2023/12/31 03:07:44;;;;;;;2.80;1.70;;;9.80;99.90;;;;;;5033433;28;20202;-77
2023/12/31 03:10:11;;;;;;;2.27;1.60;;;9.80;99.90;;;;;;5034930;28;20202;-77
2023/12/31 03:12:38;;;;;;;1.70;1.60;;;9.80;99.90;;;;;;5033046;28;20230;-77
2023/12/31 03:15:08;;;;;;;1.50;1.40;;;9.80;99.90;;;;;;5033395;28;20198;-76
2023/12/31 03:17:37;;;;;;;1.80;1.70;;;9.80;99.90;;;;;;5024028;28;20206;-77
2023/12/31 03:20:08;;;;;;;2.00;1.63;;;9.80;99.90;;;;;;5033184;28;20200;-77
2023/12/31 03:22:35;;;;;;;4.07;1.83;;;9.80;99.90;;;;;;5033311;28;20222;-77
2023/12/31 03:25:02;;;;;;;1.90;1.80;;;9.80;99.90;;;;;;5033425;28;20223;-77
2023/12/31 03:27:30;;;;;;;1.60;1.50;;;9.80;99.90;;;;;;5033635;28;20199;-76
2023/12/31 03:29:58;;;;;;;2.00;1.87;;;9.90;99.90;;;;;;5033195;28;20216;-77
2023/12/31 03:32:25;;;;;;;2.37;1.77;;;9.80;99.90;;;;;;5033144;28;20222;-76
2023/12/31 03:34:53;;;;;;;3.30;2.90;;;9.80;99.90;;;;;;5032821;28;20194;-77
2023/12/31 03:37:21;;;;;;;2.63;1.87;;;9.80;99.90;;;;;;5033291;28;20206;-77
2023/12/31 03:39:50;;;;;;;1.87;1.57;;;9.80;99.90;;;;;;5034042;28;20214;-77
2023/12/31 03:42:17;;;;;;;2.20;2.00;;;9.90;99.90;;;;;;5033176;28;20202;-77
2023/12/31 03:44:45;;;;;;;1.80;1.50;;;9.80;99.90;;;;;;5032666;28;20223;-77
2023/12/31 03:47:12;;;;;;;2.50;1.80;;;9.90;99.90;;;;;;5033836;28;20191;-77
2023/12/31 03:49:40;;;;;;;1.70;1.53;;;9.90;99.90;;;;;;5032360;28;20203;-77
2023/12/31 03:52:07;;;;;;;2.90;1.80;;;9.80;99.90;;;;;;5032803;28;20204;-76
2023/12/31 03:54:36;;;;;;;1.67;1.57;;;9.80;99.90;;;;;;5033068;28;20191;-77
2023/12/31 03:57:04;;;;;;;2.80;1.87;;;9.90;99.90;;;;;;5033540;28;20199;-76
2023/12/31 03:59:48;;;;;;;3.33;1.97;;;9.90;99.90;;;;;;5033608;28;20203;-77
2023/12/31 04:02:17;;;;;;;4.10;2.20;;;9.90;99.90;;;;;;5033582;28;20554;-77
2023/12/31 04:04:45;;;;;;;2.97;1.70;;;9.80;99.90;;;;;;5033171;28;20238;-76
2023/12/31 04:07:13;;;;;;;3.20;1.97;;;9.90;99.90;;;;;;5033197;28;20563;-76
2023/12/31 04:09:42;;;;;;;2.90;1.93;;;9.80;99.90;;;;;;5033033;28;20202;-76
2023/12/31 04:12:09;;;;;;;2.70;1.90;;;9.80;99.90;;;;;;5032660;28;20202;-76
2023/12/31 04:14:37;;;;;;;3.00;2.00;;;9.90;99.90;;;;;;5032115;28;20203;-77
2023/12/31 04:17:04;;;;;;;3.67;2.47;;;9.90;99.90;;;;;;5032270;28;20577;-77
2023/12/31 04:19:32;;;;;;;2.10;1.73;;;9.80;99.90;;;;;;5032337;28;20206;-76
2023/12/31 04:21:59;;;;;;;2.87;2.10;;;9.80;99.90;;;;;;5031660;28;20206;-77
2023/12/31 04:24:27;;;;;;;1.93;1.80;;;9.80;99.90;;;;;;5031243;28;20219;-77
2023/12/31 04:26:57;;;;;;;2.40;2.20;;;9.80;99.90;;;;;;5032538;28;20206;-77
2023/12/31 04:29:26;;;;;;;1.93;1.73;;;9.80;99.90;;;;;;5031833;28;20202;-77
2023/12/31 04:31:53;;;;;;;4.00;2.10;;;9.90;99.90;;;;;;5031904;28;20198;-77
2023/12/31 04:34:20;;;;;;;2.93;1.97;;;9.90;99.90;;;;;;5021581;28;20208;-79
2023/12/31 04:36:48;;;;;;;2.10;1.90;;;9.80;99.90;;;;;;5033637;28;20199;-77
2023/12/31 04:39:15;;;;;;;2.33;1.90;;;9.80;99.90;;;;;;5032006;28;20195;-77
2023/12/31 04:41:42;;;;;;;3.67;2.00;;;9.90;99.90;;;;;;5033266;28;20203;-77
2023/12/31 04:44:11;;;;;;;1.70;1.50;;;9.90;99.90;;;;;;5031519;28;20715;-77
2023/12/31 04:46:40;;;;;;;1.53;1.43;;;9.90;99.90;;;;;;5026797;28;20203;-77
2023/12/31 04:49:07;;;;;;;2.70;1.70;;;9.80;99.90;;;;;;5031471;28;20210;-77
2023/12/31 04:51:34;;;;;;;2.23;1.80;;;9.80;99.90;;;;;;5031652;28;20321;-76
2023/12/31 04:54:02;;;;;;;2.37;2.07;;;9.90;99.90;;;;;;5030749;28;20221;-77
2023/12/31 04:56:29;;;;;;;4.03;1.70;;;10.00;99.90;;;;;;5031792;28;20649;-77
2023/12/31 04:58:58;;;;;;;1.93;1.73;;;9.90;99.90;;;;;;5031356;28;20199;-77
2023/12/31 05:01:31;;;;;;;2.50;1.40;;;9.90;99.90;;;;;;5030955;28;20209;-77
2023/12/31 05:04:00;;;;;;;1.83;1.50;;;10.00;99.90;;;;;;5031033;28;20221;-77
2023/12/31 05:06:27;;;;;;;1.63;1.40;;;10.00;99.90;;;;;;5032558;28;20214;-77
2023/12/31 05:08:54;;;;;;;2.47;1.43;;;10.00;99.90;;;;;;5031142;28;20783;-77
2023/12/31 05:11:22;;;;;;;1.90;1.70;;;10.00;99.90;;;;;;5031197;28;20210;-77
2023/12/31 05:13:50;;;;;;;1.60;1.50;;;10.00;99.90;;;;;;5031214;28;20222;-77
2023/12/31 05:16:17;;;;;;;1.73;1.60;;;10.00;99.90;;;;;;5031160;28;20202;-77
2023/12/31 05:18:50;;;;;;;2.37;1.30;;;10.00;99.90;;;;;;5031028;28;20202;-77
2023/12/31 05:21:18;;;;;;;1.60;1.20;;;10.10;99.90;;;;;;5032581;28;20195;-77
2023/12/31 05:23:45;;;;;;;1.60;1.47;;;10.10;99.90;;;;;;5030619;28;20227;-77
2023/12/31 05:26:12;;;;;;;2.57;1.60;;;10.10;99.90;;;;;;5031235;28;20218;-77
2023/12/31 05:28:40;;;;;;;1.57;1.33;;;10.10;99.90;;;;;;5032090;28;20202;-77
2023/12/31 05:31:08;;;;;;;2.80;1.77;;;10.10;99.90;;;;;;5031203;28;20187;-77
2023/12/31 05:33:35;;;;;;;1.50;1.40;;;10.10;99.90;;;;;;5032147;28;20229;-74
2023/12/31 05:36:04;;;;;;;2.03;1.50;;;10.20;99.90;;;;;;5031526;28;20191;-77
2023/12/31 05:38:32;;;;;;;1.63;1.47;;;10.20;99.90;;;;;;5031352;28;20198;-77
2023/12/31 05:40:59;;;;;;;1.80;1.60;;;10.30;99.90;;;;;;5030736;28;20198;-77
2023/12/31 05:43:27;;;;;;;1.83;1.50;;;10.30;99.90;;;;;;5030676;28;20234;-77
2023/12/31 05:45:54;;;;;;;1.50;1.40;;;10.20;99.90;;;;;;5030551;28;20205;-76
2023/12/31 05:48:22;;;;;;;2.23;1.37;;;10.20;99.90;;;;;;5031004;28;20676;-76
2023/12/31 05:50:49;;;;;;;2.20;1.30;;;10.20;99.90;;;;;;5030917;28;20202;-77
2023/12/31 05:53:18;;;;;;;1.80;1.60;;;10.20;99.90;;;;;;5030642;28;20737;-77
2023/12/31 05:55:46;;;;;;;2.53;1.50;;;10.20;99.90;;;;;;5029141;28;20564;-77
2023/12/31 05:58:13;;;;;;;1.60;1.50;;;10.10;99.90;;;;;;5032314;28;20194;-77
2023/12/31 06:00:41;;;;;;;2.07;1.50;;;10.10;99.90;;;;;;5030828;28;20187;-77
2023/12/31 06:03:08;;;;;;;2.37;1.50;;;10.10;99.90;;;;;;5030803;28;20554;-76
2023/12/31 06:05:36;;;;;;;3.07;1.43;;;10.20;99.90;;;;;;5030778;28;20226;-77
2023/12/31 06:08:04;;;;;;;3.17;1.77;;;10.10;99.90;;;;;;5030884;28;20206;-77
2023/12/31 06:10:33;;;;;;;2.37;1.50;;;10.10;99.90;;;;;;5030740;28;20199;-77
2023/12/31 06:13:01;;;;;;;1.47;1.30;;;10.10;99.90;;;;;;5035098;28;20218;-76
2023/12/31 06:15:29;;;;;;;2.33;1.70;;;10.10;99.90;;;;;;5034447;28;20206;-77
2023/12/31 06:17:56;;;;;;;2.53;1.77;;;10.20;99.90;;;;;;5034424;28;20199;-77
2023/12/31 06:20:24;;;;;;;2.40;1.73;;;10.10;99.90;;;;;;5034730;28;20203;-77
2023/12/31 06:22:51;;;;;;;1.60;1.50;;;10.10;99.90;;;;;;5034118;28;20226;-77
2023/12/31 06:25:19;;;;;;;3.13;1.67;;;10.10;99.90;;;;;;5034254;28;20195;-77
2023/12/31 06:27:48;;;;;;;1.70;1.43;;;10.10;99.90;;;;;;5034312;28;20207;-77
2023/12/31 06:30:16;;;;;;;2.00;1.47;;;10.20;99.90;;;;;;5034153;28;20217;-77
2023/12/31 06:32:43;;;;;;;1.83;1.50;;;10.20;99.90;;;;;;5034084;28;20222;-77
2023/12/31 06:35:10;;;;;;;1.60;1.50;;;10.20;99.90;;;;;;5035644;28;20190;-76
2023/12/31 06:37:38;;;;;;;3.20;1.60;;;10.20;99.90;;;;;;5035507;28;20187;-77
2023/12/31 06:40:06;;;;;;;2.90;1.80;;;10.30;99.90;;;;;;5033701;28;20656;-77
2023/12/31 06:42:34;;;;;;;2.57;1.70;;;10.20;99.90;;;;;;5034299;28;20223;-77
2023/12/31 06:45:04;;;;;;;3.30;1.70;;;10.20;99.90;;;;;;5033641;28;20210;-77
2023/12/31 06:47:32;;;;;;;3.03;1.70;;;10.10;99.90;;;;;;5035471;28;20206;-77
2023/12/31 06:49:59;;;;;;;1.87;1.50;;;10.20;99.90;;;;;;5033391;28;20199;-77
2023/12/31 06:52:27;;;;;;;2.97;1.63;;;10.20;99.90;;;;;;5033607;28;20598;-77
2023/12/31 06:54:55;;;;;;;2.30;1.63;;;10.20;99.90;;;;;;5033669;28;20203;-76
2023/12/31 06:57:22;;;;;;;2.03;1.70;;;10.20;99.90;;;;;;5033695;28;20253;-77
2023/12/31 06:59:49;;;;;;;3.57;1.70;;;10.10;99.90;;;;;;5033456;28;20203;-77
2023/12/31 07:02:19;;;;;;;2.40;1.43;;;10.20;99.90;;;;;;5033587;28;20210;-77
2023/12/31 07:04:46;;;;;;;2.93;1.50;;;10.20;99.90;;;;;;5033354;28;20202;-77
2023/12/31 07:07:13;;;;;;;1.73;1.40;;;10.20;99.90;;;;;;5033371;28;20210;-77
2023/12/31 07:09:42;;;;;;;2.23;1.73;;;10.20;99.90;;;;;;5033115;28;20199;-77
2023/12/31 07:12:09;;;;;;;1.83;1.50;;;10.20;99.90;;;;;;5033512;28;20191;-76
2023/12/31 07:14:37;;;;;;;3.80;1.80;;;10.80;99.90;;;;;;5032684;28;20199;-76
2023/12/31 07:17:04;;;;;;;1.70;1.60;;;12.10;99.90;;;;;;5033121;28;20195;-75
2023/12/31 07:19:33;;;;;;;2.07;1.63;;;12.40;99.90;;;;;;5026049;28;20692;-77
2023/12/31 07:22:01;;;;;;;1.63;1.40;;;11.20;99.90;;;;;;5049276;28;20641;-77
2023/12/31 07:24:46;;;;;;;2.83;1.67;;;10.50;99.90;;;;;;5028835;28;20203;-78
2023/12/31 07:27:13;;;;;;;1.83;1.33;;;10.50;99.90;;;;;;5044741;28;20223;-77
2023/12/31 07:29:41;;;;;;;2.70;1.70;;;10.40;99.90;;;;;;5031818;28;20577;-77
2023/12/31 07:32:08;;;;;;;2.20;1.97;;;10.30;99.90;;;;;;5031540;28;20676;-78
2023/12/31 07:34:52;;;;;;;1.87;1.60;;;10.40;99.90;;;;;;5026641;28;20577;-77
2023/12/31 07:40:47;;;;;;;2.37;1.83;;;10.40;99.90;;;;;;5046790;28;20187;-78
2023/12/31 07:43:14;;;;;;;2.00;1.50;;;10.40;99.90;;;;;;5026931;28;20215;-78
2023/12/31 07:45:43;;;;;;;2.13;1.60;;;10.40;99.90;;;;;;5024163;28;20206;-77
2023/12/31 07:48:30;;;;;;;2.23;1.53;;;10.30;99.90;;;;;;5032223;28;20209;-77
2023/12/31 07:51:03;;;;;;;2.23;1.33;;;10.40;99.90;;;;;;5032136;28;20195;-77
2023/12/31 07:53:32;;;;;;;2.10;1.90;;;10.50;99.90;;;;;;5040998;28;20231;-78
2023/12/31 07:56:00;;;;;;;2.67;1.70;;;10.40;99.90;;;;;;5024885;28;20203;-78
2023/12/31 07:58:27;;;;;;;2.07;1.53;;;10.40;99.90;;;;;;5047794;28;20199;-77
2023/12/31 08:00:55;;;;;;;1.70;1.60;;;10.40;99.90;;;;;;5028828;28;20199;-78
2023/12/31 08:03:23;;;;;;;2.77;1.70;;;10.40;99.90;;;;;;5026953;28;20234;-78
2023/12/31 08:05:57;;;;;;;4.07;1.80;;;10.50;99.90;;;;;;5021710;28;20206;-78
2023/12/31 08:08:26;;;;;;;2.10;1.57;;;10.60;99.90;;;;;;5020246;28;20186;-80
2023/12/31 08:10:54;;;;;;;1.87;1.50;;;10.60;99.90;;;;;;5029251;28;20210;-77
2023/12/31 08:13:21;;;;;;;2.93;1.73;;;10.60;99.90;;;;;;5032685;28;20215;-77
2023/12/31 08:15:49;;;;;;;3.80;1.90;;;10.60;99.90;;;;;;5022972;28;20207;-77
2023/12/31 08:18:16;;;;;;;3.67;2.23;;;10.60;99.90;;;;;;5028791;28;20211;-77
2023/12/31 08:20:44;;;;;;;3.20;1.57;;;10.60;99.90;;;;;;5030970;28;20577;-77
2023/12/31 08:23:11;;;;;;;2.67;1.63;;;10.70;99.90;;;;;;5031217;28;20229;-77
2023/12/31 08:25:41;;;;;;;1.80;1.60;;;10.70;99.90;;;;;;5016658;28;20207;-77
2023/12/31 08:28:09;;;;;;;2.20;2.00;;;10.70;99.90;;;;;;5030687;28;20225;-77
2023/12/31 08:30:36;;;;;;;2.63;1.93;;;10.70;99.90;;;;;;5032464;28;20198;-76
2023/12/31 08:33:03;;;;;;;1.90;1.50;;;10.80;99.90;;;;;;5031200;28;20579;-77
2023/12/31 08:35:31;;;;;;;3.20;1.90;;;10.70;99.90;;;;;;5023283;28;20212;-77
2023/12/31 08:38:01;;;;;;;2.33;1.70;;;10.70;99.90;;;;;;5024811;28;20654;-77
2023/12/31 08:40:29;;;;;;;2.50;1.90;;;10.70;99.90;;;;;;5026788;28;20191;-78
2023/12/31 08:42:58;;;;;;;1.73;1.43;;;10.70;99.90;;;;;;5026028;28;20235;-77
2023/12/31 08:45:25;;;;;;;1.67;1.33;;;10.60;99.90;;;;;;5044429;28;20199;-77
2023/12/31 08:47:53;;;;;;;2.83;1.70;;;10.70;99.90;;;;;;5029770;28;20230;-77
2023/12/31 08:50:21;;;;;;;2.47;1.77;;;10.70;99.90;;;;;;5039659;28;20211;-77
2023/12/31 08:52:48;;;;;;;1.80;1.63;;;10.70;99.90;;;;;;5031239;28;20246;-78
2023/12/31 08:55:16;;;;;;;2.20;1.77;;;10.70;99.90;;;;;;5029631;28;20199;-78
2023/12/31 08:57:47;;;;;;;2.50;1.87;;;10.70;99.90;;;;;;5030894;28;20222;-77
2023/12/31 09:00:18;;;;;;;3.10;1.60;;;11.20;99.90;;;;;;5029509;28;20206;-77
2023/12/31 09:02:45;;;;;;;1.97;1.67;;;10.80;99.90;;;;;;5046955;28;20246;-77
2023/12/31 09:05:13;;;;;;;4.70;2.23;;;10.70;99.90;;;;;;5023815;28;20203;-77
2023/12/31 09:07:43;;;;;;;1.87;1.60;;;10.70;99.90;;;;;;5026352;28;20211;-78
2023/12/31 09:10:11;;;;;;;1.93;1.53;;;10.70;99.90;;;;;;5039414;28;20659;-77
2023/12/31 09:12:52;;;;;;;2.00;1.70;;;10.70;99.90;;;;;;5033225;28;20226;-77
2023/12/31 09:15:21;;;;;;;1.93;1.73;;;10.70;99.90;;;;;;5022064;28;21678;-76
2023/12/31 09:17:49;;;;;;;2.10;1.60;;;10.70;99.90;;;;;;5022942;28;20196;-76
2023/12/31 09:20:16;;;;;;;2.27;1.80;;;11.00;99.90;;;;;;5024426;28;20191;-77
2023/12/31 09:22:44;;;;;;;2.07;1.87;;;10.80;99.90;;;;;;5022750;28;20223;-77
2023/12/31 09:25:12;;;;;;;2.43;1.70;;;10.80;99.90;;;;;;5036243;28;20207;-77
2023/12/31 09:27:42;;;;;;;3.00;2.17;;;10.80;99.90;;;;;;5022294;28;20222;-79
2023/12/31 09:30:10;;;;;;;2.67;1.90;;;10.80;99.90;;;;;;5036890;28;20199;-79
2023/12/31 09:32:38;;;;;;;2.67;1.90;;;10.70;99.90;;;;;;5033702;28;20222;-79
2023/12/31 09:35:08;;;;;;;2.43;1.70;;;10.70;99.90;;;;;;5026375;28;20192;-79
2023/12/31 09:37:36;;;;;;;2.37;1.93;;;10.70;99.90;;;;;;5032557;28;20195;-80
2023/12/31 09:40:06;;;;;;;2.30;1.90;;;10.60;99.90;;;;;;5024730;28;20249;-80
2023/12/31 09:42:46;;;;;;;3.13;2.07;;;10.70;99.90;;;;;;5052378;28;20234;-79
2023/12/31 09:45:15;;;;;;;2.43;2.00;;;10.60;99.90;;;;;;5031629;28;20604;-79
2023/12/31 09:47:46;;;;;;;2.93;2.20;;;10.70;99.90;;;;;;5031096;28;20241;-79
2023/12/31 09:50:14;;;;;;;2.60;1.83;;;10.70;99.90;;;;;;5034868;28;20202;-77
2023/12/31 09:52:43;;;;;;;3.20;2.17;;;10.70;99.90;;;;;;5034556;28;20237;-77
2023/12/31 09:55:12;;;;;;;3.03;2.20;;;10.80;99.90;;;;;;5030093;28;20202;-77
2023/12/31 09:57:43;;;;;;;2.47;2.10;;;10.80;99.90;;;;;;5034055;28;20199;-76
2023/12/31 10:00:11;;;;;;;2.50;2.30;;;10.80;99.90;;;;;;5030146;28;20669;-77
2023/12/31 10:02:39;;;;;;;2.07;1.90;;;10.90;99.90;;;;;;5034000;28;20230;-78
2023/12/31 10:05:09;;;;;;;2.57;2.20;;;10.90;99.90;;;;;;5026043;28;20210;-77
2023/12/31 10:07:37;;;;;;;2.60;1.90;;;10.90;99.90;;;;;;5043517;28;20220;-78
2023/12/31 10:10:06;;;;;;;3.37;1.93;;;11.00;99.90;;;;;;5030379;28;20206;-77
2023/12/31 10:12:34;;;;;;;3.47;2.60;;;11.00;99.90;;;;;;5035173;28;20249;-77
2023/12/31 10:15:01;;;;;;;2.93;2.33;;;11.00;99.90;;;;;;5033460;28;20199;-76
2023/12/31 10:17:37;;;;;;;2.90;2.20;;;11.00;99.90;;;;;;5031266;28;20187;-76
2023/12/31 10:20:07;;;;;;;2.73;2.40;;;11.10;99.90;;;;;;5022772;28;20195;-76
2023/12/31 10:22:37;;;;;;;2.73;2.10;;;11.10;99.90;;;;;;5027468;28;20596;-76
2023/12/31 10:25:13;;;;;;;3.27;2.40;;;11.20;99.90;;;;;;5027016;28;20187;-76
2023/12/31 10:27:41;;;;;;;2.93;2.57;;;11.40;99.90;;;;;;5032200;28;20203;-76
2023/12/31 10:30:11;;;;;;;3.53;2.50;;;11.60;99.90;;;;;;5027369;28;20195;-76
2023/12/31 10:32:39;;;;;;;3.00;2.70;;;11.60;99.90;;;;;;5034103;28;20235;-76
2023/12/31 10:35:07;;;;;;;3.13;2.60;;;11.70;99.90;;;;;;5023863;28;20565;-77
2023/12/31 10:37:36;;;;;;;2.93;2.40;;;11.70;99.90;;;;;;5028553;28;20206;-77
2023/12/31 10:40:19;;;;;;;3.13;2.50;;;11.70;99.90;;;;;;5016538;28;20200;-76
2023/12/31 10:43:08;;;;;;;2.90;2.13;;;11.70;99.90;;;;;;5030638;28;20223;-77
2023/12/31 10:45:39;;;;;;;2.80;2.20;;;11.70;99.90;;;;;;5045603;28;20210;-77
2023/12/31 10:48:08;;;;;;;4.87;2.60;;;11.60;99.90;;;;;;5032037;28;20216;-76
2023/12/31 10:50:39;;;;;;;2.77;2.50;;;11.50;99.90;;;;;;5029500;28;20203;-77
2023/12/31 10:53:12;;;;;;;3.47;2.80;;;11.50;99.90;;;;;;5033037;28;20230;-77
2023/12/31 10:55:58;;;;;;;3.07;2.37;;;11.50;99.90;;;;;;5031859;28;20207;-77
2023/12/31 10:58:26;;;;;;;2.20;2.00;;;11.50;99.90;;;;;;5030351;28;20202;-77
2023/12/31 11:00:54;;;;;;;3.50;2.33;;;11.50;99.90;;;;;;5028648;28;20198;-78
2023/12/31 11:03:23;;;;;;;2.03;1.77;;;11.50;99.90;;;;;;5029986;28;20215;-77
2023/12/31 11:05:51;;;;;;;4.90;2.90;;;11.50;99.90;;;;;;5029845;28;20559;-77
2023/12/31 11:08:21;;;;;;;2.87;1.70;;;11.50;99.90;;;;;;5020100;28;20207;-77
2023/12/31 11:10:51;;;;;;;2.43;2.10;;;11.50;99.90;;;;;;5032442;28;20206;-77
2023/12/31 11:13:19;;;;;;;2.33;1.83;;;11.50;99.90;;;;;;5027040;28;20211;-78
2023/12/31 11:15:56;;;;;;;1.83;1.67;;;11.40;99.90;;;;;;5025817;28;20187;-78
2023/12/31 11:18:47;;;;;;;2.93;1.80;;;11.40;99.90;;;;;;5025303;28;20664;-78
2023/12/31 11:21:35;;;;;;;2.40;2.20;;;11.30;99.90;;;;;;5043006;28;20200;-77
2023/12/31 11:24:13;;;;;;;2.90;2.23;;;11.30;99.90;;;;;;5030439;28;20223;-78
2023/12/31 11:26:41;;;;;;;2.80;2.50;;;11.20;99.90;;;;;;5029386;28;20206;-78
2023/12/31 11:29:12;;;;;;;2.30;2.10;;;11.20;99.90;;;;;;5038763;28;20222;-77
2023/12/31 11:31:41;;;;;;;2.17;1.77;;;11.30;99.90;;;;;;5030173;28;20205;-77
2023/12/31 11:34:09;;;;;;;2.63;1.97;;;11.10;99.90;;;;;;5024365;28;20227;-77
2023/12/31 11:36:36;;;;;;;2.07;1.43;;;11.20;99.90;;;;;;5044621;28;20202;-77
2023/12/31 11:39:07;;;;;;;1.77;1.30;;;11.10;99.90;;;;;;5048043;28;20195;-77
2023/12/31 11:41:40;;;;;;;1.03;0.90;;;11.10;99.90;;;;;;5018347;28;20297;-77
2023/12/31 11:44:08;;;;;;;1.30;1.20;;;11.10;99.90;;;;;;5030092;28;20238;-77
2023/12/31 11:46:40;;;;;;;1.80;1.00;;;11.00;99.90;;;;;;5025010;28;20641;-78
2023/12/31 11:49:09;;;;;;;0.87;0.73;;;11.10;99.90;;;;;;5026538;28;20224;-78
2023/12/31 11:51:52;;;;;;;1.17;0.70;;;11.00;99.90;;;;;;5033279;28;20539;-78
2023/12/31 11:54:22;;;;;;;1.20;0.70;;;11.00;99.90;;;;;;5019943;28;20234;-78
2023/12/31 11:56:52;;;;;;;3.73;0.80;;;11.00;99.90;;;;;;5029988;28;20671;-78
2023/12/31 11:59:20;;;;;;;1.07;0.70;;;10.90;99.90;;;;;;5033677;28;20211;-78
2023/12/31 12:01:49;;;;;;;0.90;0.50;;;11.00;99.90;;;;;;5036394;28;20210;-79
2023/12/31 12:04:17;;;;;;;1.47;0.60;;;11.00;99.90;;;;;;5034657;28;20219;-80
2023/12/31 12:06:45;;;;;;;1.47;0.60;;;11.00;99.90;;;;;;5025944;28;20538;-76
2023/12/31 12:09:13;;;;;;;1.47;0.77;;;10.80;99.90;;;;;;5022764;28;20218;-76
2023/12/31 12:11:43;;;;;;;0.77;0.57;;;11.00;99.90;;;;;;5021874;28;20195;-76
2023/12/31 12:15:04;;;;;;;1.20;0.63;;;11.00;99.90;;;;;;5032035;28;20215;-77
2023/12/31 12:17:32;;;;;;;0.93;0.50;;;11.10;99.90;;;;;;5035008;28;20206;-79
2023/12/31 12:19:59;;;;;;;1.07;0.50;;;10.80;99.90;;;;;;5036084;28;20195;-78
2023/12/31 12:22:32;;;;;;;0.70;0.30;;;10.60;99.90;;;;;;5036187;28;20226;-78
2023/12/31 12:25:05;;;;;;;0.30;0.30;;;10.40;99.90;;;;;;5032439;28;20222;-78
2023/12/31 12:27:40;;;;;;;1.97;0.90;;;10.30;99.90;;;;;;5036158;28;20203;-78
2023/12/31 12:30:08;;;;;;;0.70;0.53;;;10.20;99.90;;;;;;5033233;28;20198;-78
2023/12/31 12:32:36;;;;;;;1.57;0.50;;;10.10;99.90;;;;;;5035499;28;20226;-79
2023/12/31 12:35:08;;;;;;;0.50;0.43;;;10.10;99.90;;;;;;5028969;28;20195;-79
2023/12/31 12:37:35;;;;;;;0.50;0.50;;;10.10;99.90;;;;;;5032470;28;20668;-79
2023/12/31 12:40:05;;;;;;;0.53;0.40;;;10.10;99.90;;;;;;5034189;28;20214;-78
2023/12/31 12:42:34;;;;;;;0.63;0.50;;;10.00;99.90;;;;;;5033549;28;20230;-78
2023/12/31 12:45:02;;;;;;;1.10;0.40;;;10.00;99.90;;;;;;5033055;28;20198;-78
2023/12/31 12:47:30;;;;;;;1.33;0.53;;;9.80;99.90;;;;;;5036286;28;20186;-78
2023/12/31 12:49:57;;;;;;;0.97;0.87;;;9.80;99.90;;;;;;5034884;28;20215;-78
2023/12/31 12:52:25;;;;;;;1.40;0.77;;;9.70;99.90;;;;;;5034134;28;20222;-78
2023/12/31 12:54:52;;;;;;;0.87;0.57;;;9.80;99.90;;;;;;5033220;28;20195;-78
2023/12/31 12:57:26;;;;;;;1.30;0.57;;;9.80;99.90;;;;;;5033266;28;20199;-78
2023/12/31 12:59:53;;;;;;;1.13;0.40;;;9.80;99.90;;;;;;5035285;28;20183;-78
2023/12/31 13:02:21;;;;;;;1.13;0.50;;;9.80;99.90;;;;;;5020086;28;20191;-78
2023/12/31 13:04:48;;;;;;;1.20;0.80;;;9.80;99.90;;;;;;5029364;28;20235;-79